Time;durP1;ratioP1;P1;durP2;ratioP2;P2;SDS_P1;SDS_P2;PMS_P1;PMS_P2;Temp;Humidity;BMP_temperature;BMP_pressure;BME280_temperature;BME280_humidity;BME280_pressure;Samples;Min_cycle;Max_cycle;Signal;HPM_P1;HPM_P2
2021/04/26 00:00:32;;;;;;;4.22;2.00;;;;;;;4.43;57.16;98802.25;4991369;28;20093;-69
2021/04/26 00:02:58;;;;;;;2.88;2.08;;;;;;;4.37;57.54;98804.94;4987457;28;20033;-68
2021/04/26 00:05:25;;;;;;;3.08;1.90;;;;;;;4.26;57.51;98798.16;4990663;28;20022;-69
2021/04/26 00:07:53;;;;;;;3.30;2.20;;;;;;;4.15;57.53;98800.81;4988520;28;20037;-69
2021/04/26 00:10:20;;;;;;;4.68;2.05;;;;;;;4.48;57.61;98784.97;4977862;28;20030;-70
2021/04/26 00:12:46;;;;;;;;;;;;;;;4.38;57.28;98796.28;4988458;28;20373;-70
2021/04/26 00:15:18;;;;;;;3.95;2.00;;;;;;;4.39;57.99;98791.97;4989652;28;20414;-69
2021/04/26 00:17:44;;;;;;;3.78;2.20;;;;;;;4.34;57.92;98785.97;4988629;28;20566;-69
2021/04/26 00:20:11;;;;;;;4.18;2.22;;;;;;;4.15;58.31;98798.22;4991321;28;20350;-69
2021/04/26 00:22:37;;;;;;;7.53;2.85;;;;;;;4.75;57.61;98776.03;4988569;28;20160;-69
2021/04/26 00:25:06;;;;;;;4.07;2.33;;;;;;;4.67;58.23;98774.41;4989669;28;20129;-69
2021/04/26 00:27:32;;;;;;;4.80;2.38;;;;;;;4.59;58.32;98767.56;4989936;28;20412;-69
2021/04/26 00:29:57;;;;;;;3.58;2.15;;;;;;;4.50;59.23;98767.69;4987995;28;20034;-69
2021/04/26 00:32:22;;;;;;;3.80;2.40;;;;;;;4.41;59.07;98761.75;4990438;28;20022;-69
2021/04/26 00:34:48;;;;;;;4.90;2.50;;;;;;;4.93;57.43;98742.13;4989451;28;20030;-69
2021/04/26 00:37:13;;;;;;;3.10;2.20;;;;;;;4.83;58.37;98740.53;4988831;28;20034;-69
2021/04/26 00:39:39;;;;;;;4.95;2.63;;;;;;;4.76;58.34;98740.63;4972632;28;20351;-68
2021/04/26 00:42:04;;;;;;;3.50;2.40;;;;;;;4.81;58.14;98741.44;4970744;28;20034;-68
2021/04/26 00:44:30;;;;;;;5.63;2.92;;;;;;;4.82;58.17;98737.97;4971518;28;20026;-69
2021/04/26 00:46:55;;;;;;;5.78;2.63;;;;;;;4.82;59.02;98723.28;4971590;28;20077;-69
2021/04/26 00:49:20;;;;;;;4.32;2.05;;;;;;;4.81;58.31;98724.16;4988283;28;20033;-69
2021/04/26 00:51:46;;;;;;;3.20;2.30;;;;;;;4.80;58.95;98721.56;4989832;28;20531;-69
2021/04/26 00:54:14;;;;;;;4.63;2.45;;;;;;;4.71;59.03;98721.69;4988218;28;20042;-69
2021/04/26 00:56:39;;;;;;;4.25;2.53;;;;;;;4.73;59.11;98717.38;4988901;28;20014;-69
2021/04/26 00:59:05;;;;;;;5.07;2.90;;;;;;;4.76;59.58;98712.13;4989737;28;20077;-69
2021/04/26 01:01:30;;;;;;;4.97;2.85;;;;;;;4.83;58.93;98711.19;4989718;28;20422;-68
2021/04/26 01:03:56;;;;;;;4.22;2.60;;;;;;;4.83;58.77;98712.03;4987555;28;20026;-69
2021/04/26 01:06:21;;;;;;;3.90;2.50;;;;;;;4.78;59.13;98700.00;4995897;28;20041;-69
2021/04/26 01:08:47;;;;;;;3.90;2.63;;;;;;;4.81;59.00;98695.66;4987567;28;20034;-69
2021/04/26 01:11:13;;;;;;;6.82;2.67;;;;;;;4.90;58.81;98700.69;4988584;28;20061;-69
2021/04/26 01:14:14;;;;;;;5.95;2.78;;;;;;;4.86;58.68;98688.69;4989155;28;20500;-69
2021/04/26 01:16:53;;;;;;;4.63;2.60;;;;;;;4.86;58.89;98682.63;4989050;28;20034;-69
2021/04/26 01:19:56;;;;;;;6.53;3.33;;;;;;;4.81;59.21;98687.88;4988048;28;20065;-69
2021/04/26 01:22:55;;;;;;;7.50;2.45;;;;;;;4.59;59.70;98668.28;4974642;28;20107;-69
2021/04/26 01:25:23;;;;;;;6.30;2.70;;;;;;;4.79;58.39;98665.44;4970092;28;20039;-69
2021/04/26 01:27:58;;;;;;;5.10;2.70;;;;;;;4.75;58.64;98658.59;4981452;28;20037;-69
2021/04/26 01:30:24;;;;;;;5.47;2.95;;;;;;;4.91;58.03;98644.53;4988402;28;20165;-68
2021/04/26 01:32:55;;;;;;;5.88;2.60;;;;;;;4.92;57.92;98643.66;4986298;28;20117;-67
2021/04/26 01:35:23;;;;;;;4.25;2.78;;;;;;;4.93;57.82;98646.25;4985047;28;20077;-68
2021/04/26 01:37:57;;;;;;;4.72;3.00;;;;;;;4.91;58.39;98623.81;4989224;28;20045;-68
2021/04/26 01:40:24;;;;;;;5.18;2.92;;;;;;;4.90;58.67;98622.09;4989076;28;20102;-68
2021/04/26 01:42:54;;;;;;;3.22;2.35;;;;;;;4.85;58.97;98616.16;4987437;28;20041;-68
2021/04/26 01:45:21;;;;;;;4.03;2.78;;;;;;;4.74;58.66;98621.47;4989842;28;20056;-68
2021/04/26 01:47:50;;;;;;;4.75;2.75;;;;;;;4.53;58.57;98625.22;4988190;28;20370;-68
2021/04/26 01:50:16;;;;;;;5.00;2.50;;;;;;;4.68;58.04;98621.56;4989230;28;20039;-67
2021/04/26 01:52:42;;;;;;;4.20;2.60;;;;;;;4.48;58.58;98619.25;4982375;28;20129;-67
2021/04/26 01:55:11;;;;;;;4.88;2.72;;;;;;;4.45;58.47;98624.44;4989702;28;20543;-68
2021/04/26 01:57:37;;;;;;;6.53;3.10;;;;;;;4.60;58.28;98613.88;4988760;28;20034;-68
2021/04/26 02:00:34;;;;;;;5.38;2.78;;;;;;;4.54;58.07;98611.41;4986183;28;20034;-68
2021/04/26 02:03:01;;;;;;;3.35;2.53;;;;;;;4.52;58.26;98613.16;4992296;28;20046;-68
2021/04/26 02:05:28;;;;;;;4.28;2.80;;;;;;;4.43;58.40;98623.63;4990189;28;20096;-68
2021/04/26 02:07:55;;;;;;;4.80;2.53;;;;;;;4.21;59.23;98628.22;4994846;28;20526;-68
2021/04/26 02:10:24;;;;;;;4.70;2.83;;;;;;;4.25;58.05;98629.03;4987692;28;20070;-69
2021/04/26 02:12:50;;;;;;;5.47;2.75;;;;;;;4.14;59.03;98625.69;4987745;28;20396;-68
2021/04/26 02:15:19;;;;;;;4.13;2.88;;;;;;;4.09;59.83;98628.38;4988390;28;20456;-68
2021/04/26 02:17:46;;;;;;;3.90;2.33;;;;;;;4.23;59.11;98626.47;4987223;28;20026;-68
2021/04/26 02:20:14;;;;;;;2.50;1.92;;;;;;;4.27;59.05;98616.94;4988397;28;20133;-68
2021/04/26 02:22:39;;;;;;;;;;;;;;;4.14;59.31;98623.97;4988885;28;20088;-68
2021/04/26 02:25:07;;;;;;;3.70;2.83;;;;;;;4.08;59.55;98633.56;4987050;28;19914;-68
2021/04/26 02:27:35;;;;;;;4.65;2.85;;;;;;;4.03;59.33;98651.72;4987659;28;20061;-68
2021/04/26 02:30:00;;;;;;;3.95;2.75;;;;;;;3.78;59.71;98650.25;4988443;28;20026;-68
2021/04/26 02:32:50;;;;;;;6.43;2.78;;;;;;;3.93;59.34;98646.66;4989034;28;20493;-68
2021/04/26 02:35:25;;;;;;;7.90;2.88;;;;;;;3.70;59.74;98647.72;4984305;28;20092;-68
2021/04/26 02:37:54;;;;;;;3.85;2.47;;;;;;;3.50;60.93;98642.75;4991982;28;20030;-68
2021/04/26 02:40:20;;;;;;;4.55;2.70;;;;;;;3.43;61.33;98647.97;4992301;28;20034;-68
2021/04/26 02:42:49;;;;;;;4.35;2.60;;;;;;;3.15;61.99;98649.94;4991412;28;20030;-68
2021/04/26 02:45:22;;;;;;;5.07;2.83;;;;;;;3.29;61.93;98650.69;5000200;28;20038;-67
2021/04/26 02:47:49;;;;;;;4.47;2.33;;;;;;;3.14;62.41;98659.41;4991757;28;20105;-68
2021/04/26 02:50:21;;;;;;;5.38;2.80;;;;;;;3.16;63.30;98662.84;4991542;28;20102;-67
2021/04/26 02:52:51;;;;;;;4.82;2.53;;;;;;;3.40;61.59;98648.84;4991817;28;20033;-70
2021/04/26 02:55:19;;;;;;;4.45;2.58;;;;;;;3.42;60.54;98654.03;4990903;28;20034;-68
2021/04/26 02:57:45;;;;;;;5.85;2.70;;;;;;;3.43;60.94;98654.00;4991525;28;20036;-68
2021/04/26 03:00:14;;;;;;;3.88;2.85;;;;;;;3.30;61.27;98665.31;4992124;28;20038;-68
2021/04/26 03:02:41;;;;;;;3.72;2.40;;;;;;;3.30;60.95;98661.88;4991913;28;20033;-68
2021/04/26 03:05:07;;;;;;;4.75;2.53;;;;;;;3.10;61.88;98660.28;4990533;28;20030;-68
2021/04/26 03:07:35;;;;;;;4.22;2.80;;;;;;;2.96;62.00;98651.78;4992552;28;20030;-69
2021/04/26 03:10:03;;;;;;;3.97;2.65;;;;;;;2.92;62.96;98662.13;4991486;28;20484;-69
2021/04/26 03:12:33;;;;;;;3.67;2.38;;;;;;;2.84;62.44;98659.59;4990080;28;20066;-70
2021/04/26 03:15:01;;;;;;;3.85;2.50;;;;;;;2.67;62.97;98658.84;4990137;28;20026;-69
2021/04/26 03:17:27;;;;;;;3.22;2.30;;;;;;;2.73;62.95;98653.66;4992077;28;20026;-69
2021/04/26 03:19:53;;;;;;;5.70;2.70;;;;;;;2.57;62.77;98652.88;4991322;28;20030;-69
2021/04/26 03:22:19;;;;;;;4.35;2.80;;;;;;;2.64;62.79;98648.53;4990296;28;20045;-69
2021/04/26 03:24:45;;;;;;;5.18;2.97;;;;;;;2.60;62.58;98644.28;4991764;28;20057;-69
2021/04/26 03:27:11;;;;;;;5.15;2.53;;;;;;;2.54;62.91;98642.56;4990906;28;20459;-69
2021/04/26 03:29:37;;;;;;;3.33;2.30;;;;;;;2.32;63.45;98634.06;4989246;28;20034;-69
2021/04/26 03:32:04;;;;;;;5.22;2.60;;;;;;;2.29;64.09;98638.38;4990616;28;20026;-69
2021/04/26 03:34:31;;;;;;;4.30;2.95;;;;;;;2.32;63.47;98625.44;4990205;28;20030;-69
2021/04/26 03:36:57;;;;;;;3.60;2.58;;;;;;;2.21;63.73;98627.22;4990382;28;20105;-68
2021/04/26 03:39:23;;;;;;;5.00;2.40;;;;;;;2.10;63.77;98632.44;4989849;28;20027;-68
2021/04/26 03:41:48;;;;;;;3.60;2.50;;;;;;;2.12;64.13;98622.97;4989269;28;20022;-68
2021/04/26 03:44:18;;;;;;;5.10;3.00;;;;;;;2.20;64.19;98615.19;4991723;28;20057;-68
2021/04/26 03:46:54;;;;;;;4.55;2.47;;;;;;;2.13;64.10;98614.38;4988308;28;20030;-68
2021/04/26 03:49:20;;;;;;;3.50;2.30;;;;;;;2.09;64.16;98623.84;4990603;28;20435;-68
2021/04/26 03:51:48;;;;;;;6.50;2.60;;;;;;;2.16;65.48;98627.22;4980144;28;20496;-68
2021/04/26 03:54:14;;;;;;;4.75;2.72;;;;;;;2.16;63.90;98621.22;4986422;28;20037;-69
2021/04/26 03:56:40;;;;;;;3.75;2.50;;;;;;;2.24;63.44;98627.22;4989460;28;20038;-68
2021/04/26 03:59:06;;;;;;;4.57;2.88;;;;;;;2.59;60.68;98625.34;4991238;28;20081;-69
2021/04/26 04:01:32;;;;;;;6.68;2.70;;;;;;;2.79;61.12;98622.63;4990062;28;20030;-70
2021/04/26 04:03:57;;;;;;;4.00;2.80;;;;;;;2.87;59.47;98613.09;4990232;28;20030;-68
2021/04/26 04:06:22;;;;;;;3.33;2.38;;;;;;;2.75;59.76;98610.63;4989762;28;20072;-69
2021/04/26 04:08:48;;;;;;;3.92;2.35;;;;;;;2.61;60.48;98627.88;4989715;28;20031;-69
2021/04/26 04:11:14;;;;;;;5.50;2.47;;;;;;;2.52;61.42;98625.38;4989880;28;20526;-68
2021/04/26 04:13:40;;;;;;;3.38;2.28;;;;;;;2.46;60.84;98628.81;4990298;28;20502;-69
2021/04/26 04:16:06;;;;;;;3.13;2.30;;;;;;;2.37;60.66;98626.28;4989344;28;20061;-69
2021/04/26 04:18:31;;;;;;;4.28;2.38;;;;;;;2.28;61.34;98629.78;4987990;28;20042;-69
2021/04/26 04:20:56;;;;;;;2.80;2.38;;;;;;;2.43;61.18;98629.72;4989765;28;20401;-68
2021/04/26 04:23:22;;;;;;;3.28;2.30;;;;;;;2.66;59.75;98624.41;4991215;28;20046;-69
2021/04/26 04:25:47;;;;;;;6.45;2.53;;;;;;;2.41;60.79;98622.84;4989498;28;20030;-69
2021/04/26 04:28:13;;;;;;;4.18;2.22;;;;;;;2.26;61.37;98625.50;4994698;28;20435;-68
2021/04/26 04:30:38;;;;;;;5.43;2.60;;;;;;;2.38;60.37;98615.13;4988613;28;20088;-69
2021/04/26 04:33:04;;;;;;;2.80;2.17;;;;;;;2.22;61.40;98606.59;4974132;28;20539;-68
2021/04/26 04:35:29;;;;;;;4.03;2.30;;;;;;;2.32;61.30;98609.97;4991033;28;20113;-69
2021/04/26 04:37:56;;;;;;;4.97;2.55;;;;;;;2.42;60.59;98616.81;4990794;28;20027;-68
2021/04/26 04:40:21;;;;;;;3.35;2.60;;;;;;;2.48;60.23;98617.63;4988492;28;20033;-68
2021/04/26 04:42:46;;;;;;;3.63;2.38;;;;;;;2.48;60.53;98619.34;4990275;28;20034;-68
2021/04/26 04:45:13;;;;;;;3.22;2.50;;;;;;;2.60;59.81;98613.28;4989644;28;20022;-68
2021/04/26 04:47:38;;;;;;;4.55;2.55;;;;;;;2.61;60.17;98620.13;4995829;28;20030;-68
2021/04/26 04:50:04;;;;;;;5.57;2.90;;;;;;;3.08;58.71;98609.50;4995441;28;20037;-68
2021/04/26 04:52:30;;;;;;;4.43;2.88;;;;;;;3.04;58.02;98610.41;4985857;28;20041;-68
2021/04/26 04:54:57;;;;;;;3.85;2.50;;;;;;;3.00;58.72;98619.91;4989999;28;20022;-68
2021/04/26 04:57:23;;;;;;;5.20;2.72;;;;;;;2.98;58.29;98618.19;4988091;28;20026;-68
2021/04/26 04:59:48;;;;;;;3.40;2.60;;;;;;;3.12;58.54;98616.34;4976615;28;20492;-68
2021/04/26 05:02:14;;;;;;;5.20;2.30;;;;;;;3.01;58.76;98620.75;4989959;28;20170;-68
2021/04/26 05:04:39;;;;;;;3.97;2.08;;;;;;;3.01;59.08;98613.00;4989199;28;20026;-68
2021/04/26 05:07:08;;;;;;;4.38;2.70;;;;;;;3.07;58.26;98618.09;4986383;28;20030;-69
2021/04/26 05:09:33;;;;;;;3.95;2.25;;;;;;;3.29;57.51;98605.88;4989322;28;20061;-69
2021/04/26 05:11:59;;;;;;;4.68;2.60;;;;;;;3.35;57.92;98618.78;4986754;28;20030;-70
2021/04/26 05:14:27;;;;;;;3.78;2.60;;;;;;;3.31;57.96;98611.91;4982953;28;20069;-70
2021/04/26 05:16:55;;;;;;;3.50;2.58;;;;;;;3.59;57.57;98602.16;4987862;28;20026;-69
2021/04/26 05:19:21;;;;;;;5.55;2.50;;;;;;;3.56;57.88;98610.81;4987718;28;20034;-70
2021/04/26 05:21:48;;;;;;;4.00;2.33;;;;;;;3.65;56.50;98613.31;4989120;28;20654;-67
2021/04/26 05:24:14;;;;;;;3.60;2.60;;;;;;;3.74;57.04;98608.03;4987645;28;20100;-74
2021/04/26 05:26:40;;;;;;;4.53;2.40;;;;;;;3.84;56.63;98609.66;4982916;28;20481;-73
2021/04/26 05:29:05;;;;;;;3.28;2.47;;;;;;;3.91;56.36;98609.59;4980929;28;20038;-73
2021/04/26 05:31:31;;;;;;;3.28;2.35;;;;;;;3.96;56.51;98608.69;4989736;28;20037;-72
2021/04/26 05:33:56;;;;;;;5.68;2.63;;;;;;;4.01;56.36;98613.78;4987837;28;20026;-72
2021/04/26 05:36:22;;;;;;;3.67;2.67;;;;;;;4.18;56.32;98611.84;4978307;28;20030;-72
2021/04/26 05:38:48;;;;;;;3.40;2.38;;;;;;;4.24;55.37;98609.22;4990979;28;20054;-72
2021/04/26 05:41:13;;;;;;;3.65;2.40;;;;;;;4.40;54.62;98615.91;4980967;28;20061;-72
2021/04/26 05:43:38;;;;;;;5.45;2.55;;;;;;;4.48;54.61;98613.19;4990284;28;20061;-75
2021/04/26 05:46:06;;;;;;;4.07;2.72;;;;;;;4.67;53.78;98614.69;4988580;28;20034;-75
2021/04/26 05:48:32;;;;;;;3.47;2.40;;;;;;;4.73;54.03;98617.19;4991497;28;20027;-74
2021/04/26 05:50:57;;;;;;;3.80;2.58;;;;;;;4.88;53.25;98616.13;4989250;28;20046;-75
2021/04/26 05:53:23;;;;;;;4.65;2.42;;;;;;;4.97;53.66;98621.16;4987451;28;20026;-74
2021/04/26 05:55:49;;;;;;;4.35;2.40;;;;;;;5.04;53.34;98609.78;4988218;28;20105;-71
2021/04/26 05:58:15;;;;;;;4.05;2.58;;;;;;;5.15;52.64;98618.28;4984451;28;20049;-72
2021/04/26 06:00:43;;;;;;;6.63;2.50;;;;;;;5.27;51.73;98618.09;4993706;28;20034;-72
2021/04/26 06:03:08;;;;;;;4.05;2.60;;;;;;;5.43;51.98;98616.09;4990048;28;20058;-72
2021/04/26 06:05:36;;;;;;;3.35;2.17;;;;;;;5.47;52.43;98609.97;4990390;28;20408;-72
2021/04/26 06:08:02;;;;;;;5.55;2.38;;;;;;;5.62;52.01;98614.91;4989654;28;20519;-71
2021/04/26 06:10:27;;;;;;;4.47;2.42;;;;;;;5.70;51.93;98609.56;4990874;28;20054;-71
2021/04/26 06:12:53;;;;;;;3.47;2.42;;;;;;;5.84;51.36;98620.53;4994681;28;20030;-72
2021/04/26 06:15:21;;;;;;;4.53;2.40;;;;;;;5.85;50.50;98611.00;4996843;28;20042;-72
2021/04/26 06:17:46;;;;;;;4.95;2.65;;;;;;;6.18;50.28;98612.16;4994381;28;20026;-72
2021/04/26 06:20:12;;;;;;;4.72;2.40;;;;;;;6.27;50.56;98607.59;4994024;28;20326;-71
2021/04/26 06:22:38;;;;;;;3.85;2.40;;;;;;;6.34;50.37;98619.59;4992470;28;20023;-71
2021/04/26 06:25:04;;;;;;;4.60;2.22;;;;;;;6.46;49.74;98617.63;4995345;28;20061;-72
2021/04/26 06:27:29;;;;;;;3.60;2.40;;;;;;;6.48;49.35;98621.06;4976464;28;20030;-72
2021/04/26 06:29:54;;;;;;;3.83;2.30;;;;;;;6.60;49.54;98624.25;4973968;28;20030;-71
2021/04/26 06:32:23;;;;;;;3.50;2.20;;;;;;;6.80;48.89;98617.75;4983138;28;20795;-75
2021/04/26 06:34:48;;;;;;;5.90;2.35;;;;;;;6.76;49.32;98627.38;4992886;28;20086;-74
2021/04/26 06:37:14;;;;;;;3.60;2.33;;;;;;;6.87;49.07;98621.94;4991763;28;20789;-74
2021/04/26 06:39:39;;;;;;;2.90;2.20;;;;;;;7.04;48.28;98618.03;4988037;28;20033;-74
2021/04/26 06:42:05;;;;;;;3.13;2.20;;;;;;;7.23;48.64;98625.44;4982331;28;20033;-74
2021/04/26 06:44:31;;;;;;;3.75;2.42;;;;;;;7.24;47.96;98621.94;4993347;28;20741;-73
2021/04/26 06:46:56;;;;;;;4.05;2.30;;;;;;;7.54;47.49;98613.38;4988779;28;20028;-74
2021/04/26 06:49:26;;;;;;;2.35;2.10;;;;;;;7.62;47.75;98618.41;4993827;28;20350;-72
2021/04/26 06:51:51;;;;;;;3.58;2.30;;;;;;;7.80;47.43;98622.25;4993060;28;20030;-73
2021/04/26 06:54:19;;;;;;;3.25;2.10;;;;;;;7.88;46.75;98621.16;4989866;28;20677;-70
2021/04/26 06:56:45;;;;;;;4.53;2.22;;;;;;;7.72;46.53;98617.25;4985842;28;20112;-69
2021/04/26 06:59:10;;;;;;;4.68;2.40;;;;;;;7.74;47.03;98621.53;4982819;28;20027;-70
2021/04/26 07:01:41;;;;;;;5.28;2.25;;;;;;;7.82;46.89;98625.66;4987638;28;20144;-72
2021/04/26 07:04:08;;;;;;;3.40;2.30;;;;;;;8.33;46.18;98619.09;4988009;28;20042;-72
2021/04/26 07:06:33;;;;;;;;;;;;;;;8.15;45.93;98616.09;4992331;28;20114;-74
2021/04/26 07:08:59;;;;;;;3.83;2.50;;;;;;;8.35;46.00;98616.44;4990207;28;20010;-74
2021/04/26 07:11:24;;;;;;;4.57;2.30;;;;;;;8.66;44.98;98619.00;4987804;28;20031;-72
2021/04/26 07:13:52;;;;;;;4.47;2.22;;;;;;;8.66;45.49;98606.84;4972448;28;20045;-76
2021/04/26 07:16:18;;;;;;;3.60;2.13;;;;;;;8.66;44.82;98606.84;4985271;28;20037;-72
2021/04/26 07:18:44;;;;;;;3.50;2.30;;;;;;;8.80;44.90;98607.28;4991252;28;20027;-74
2021/04/26 07:21:09;;;;;;;3.40;2.25;;;;;;;9.21;43.82;98597.28;4989571;28;20030;-73
2021/04/26 07:23:35;;;;;;;3.15;2.10;;;;;;;9.33;44.11;98596.03;4988714;28;20033;-73
2021/04/26 07:26:01;;;;;;;4.60;2.40;;;;;;;9.37;43.55;98584.59;4988150;28;20744;-74
2021/04/26 07:28:29;;;;;;;3.45;2.25;;;;;;;9.52;42.80;98584.09;4988643;28;20030;-74
2021/04/26 07:30:54;;;;;;;;;;;;;;;9.81;42.54;98576.09;4984632;28;20042;-73
2021/04/26 07:33:20;;;;;;;3.78;2.30;;;;;;;10.00;42.63;98576.31;4987042;28;19917;-74
2021/04/26 07:35:45;;;;;;;4.45;2.20;;;;;;;9.78;43.40;98572.75;4987545;28;20420;-73
2021/04/26 07:38:13;;;;;;;2.90;2.20;;;;;;;10.07;42.61;98576.97;4989389;28;20050;-73
2021/04/26 07:40:38;;;;;;;4.43;2.20;;;;;;;10.18;42.32;98575.69;4985898;28;20532;-76
2021/04/26 07:43:04;;;;;;;5.10;2.58;;;;;;;9.86;42.50;98568.13;4987710;28;20051;-73
2021/04/26 07:45:30;;;;;;;2.92;2.00;;;;;;;10.49;42.25;98564.09;4988042;28;20032;-73
2021/04/26 07:47:57;;;;;;;3.33;2.15;;;;;;;10.67;40.65;98558.16;4983846;28;20428;-74
2021/04/26 07:50:24;;;;;;;3.13;2.30;;;;;;;10.48;42.18;98559.78;4986197;28;20757;-74
2021/04/26 07:52:49;;;;;;;3.10;2.17;;;;;;;10.88;41.65;98561.69;4985934;28;20061;-74
2021/04/26 07:55:15;;;;;;;4.28;2.17;;;;;;;11.05;41.82;98555.78;4991536;28;20480;-75
2021/04/26 07:57:41;;;;;;;3.05;2.17;;;;;;;10.88;41.19;98562.53;4987011;28;20653;-73
2021/04/26 08:00:09;;;;;;;4.18;2.30;;;;;;;10.77;41.06;98571.72;4988691;28;20039;-74
2021/04/26 08:02:35;;;;;;;3.13;1.98;;;;;;;11.37;39.33;98565.78;4985530;28;20045;-74
2021/04/26 08:05:02;;;;;;;4.28;2.20;;;;;;;11.21;41.01;98562.09;4984640;28;20620;-74
2021/04/26 08:07:27;;;;;;;3.78;2.38;;;;;;;11.16;40.77;98557.03;4980949;28;20026;-75
2021/04/26 08:09:52;;;;;;;3.85;2.03;;;;;;;11.58;40.12;98549.19;4987980;28;20045;-74
2021/04/26 08:12:21;;;;;;;4.38;2.22;;;;;;;11.25;39.91;98558.47;4980953;28;20042;-74
2021/04/26 08:14:47;;;;;;;3.60;2.20;;;;;;;11.19;40.40;98550.84;4988454;28;20047;-72
2021/04/26 08:17:13;;;;;;;6.07;2.65;;;;;;;11.85;39.54;98551.56;4981272;28;20034;-74
2021/04/26 08:19:38;;;;;;;3.30;2.20;;;;;;;11.97;38.92;98556.28;4983312;28;20567;-75
2021/04/26 08:22:04;;;;;;;3.50;2.30;;;;;;;12.09;39.60;98545.25;4983004;28;20033;-72
2021/04/26 08:24:29;;;;;;;3.03;2.10;;;;;;;11.88;39.04;98540.97;4986557;28;20500;-74
2021/04/26 08:26:56;;;;;;;4.75;2.20;;;;;;;12.58;38.96;98543.00;4984864;28;20038;-73
2021/04/26 08:29:22;;;;;;;3.47;2.00;;;;;;;12.73;37.01;98533.56;4985803;28;20033;-75
2021/04/26 08:31:50;;;;;;;4.63;2.60;;;;;;;12.51;37.68;98533.75;4984763;28;20030;-74
2021/04/26 08:34:15;;;;;;;2.63;2.03;;;;;;;12.53;37.81;98530.09;4988743;28;20128;-72
2021/04/26 08:36:41;;;;;;;2.65;2.03;;;;;;;12.84;37.77;98529.50;4986955;28;20539;-73
2021/04/26 08:39:09;;;;;;;2.85;2.10;;;;;;;12.57;38.57;98533.44;4990394;28;20037;-73
2021/04/26 08:41:38;;;;;;;3.78;2.17;;;;;;;13.10;37.20;98530.03;4987922;28;20038;-75
2021/04/26 08:44:04;;;;;;;3.63;2.10;;;;;;;12.76;36.59;98521.16;4988820;28;20764;-74
2021/04/26 08:46:29;;;;;;;2.67;1.77;;;;;;;13.29;36.36;98518.56;4986563;28;20121;-74
2021/04/26 08:48:57;;;;;;;5.30;2.63;;;;;;;13.62;37.28;98515.16;4987983;28;20148;-73
2021/04/26 08:51:22;;;;;;;3.20;2.22;;;;;;;13.55;36.55;98519.03;4987448;28;20030;-73
2021/04/26 08:53:50;;;;;;;2.60;1.80;;;;;;;12.57;36.91;98520.31;4990600;28;20049;-73
2021/04/26 08:56:16;;;;;;;4.78;2.22;;;;;;;12.93;38.31;98515.09;4986941;28;20105;-73
2021/04/26 08:58:44;;;;;;;3.50;2.03;;;;;;;12.81;37.14;98518.31;4986432;28;20037;-73
2021/04/26 09:01:09;;;;;;;3.65;2.10;;;;;;;13.24;37.48;98517.09;4987518;28;20037;-73
2021/04/26 09:03:36;;;;;;;2.35;1.85;;;;;;;13.40;36.69;98510.16;4985016;28;20034;-73
2021/04/26 09:06:05;;;;;;;6.85;4.00;;;;;;;13.68;36.40;98507.81;4987001;28;20480;-74
2021/04/26 09:08:31;;;;;;;3.70;2.20;;;;;;;14.33;35.20;98500.84;4984538;28;20034;-74
2021/04/26 09:11:07;;;;;;;3.72;2.08;;;;;;;13.06;36.94;98496.97;4986139;28;20381;-74
2021/04/26 09:13:45;;;;;;;2.90;1.90;;;;;;;14.18;35.09;98496.44;4987186;28;20034;-74
2021/04/26 09:16:20;;;;;;;3.50;1.95;;;;;;;14.38;36.06;98500.59;4985008;28;20058;-75
2021/04/26 09:18:55;;;;;;;2.58;1.85;;;;;;;13.86;35.36;98495.50;4986061;28;20089;-74
2021/04/26 09:21:25;;;;;;;3.35;2.30;;;;;;;14.50;34.76;98496.50;4985578;28;20489;-74
2021/04/26 09:24:11;;;;;;;2.63;1.70;;;;;;;14.40;35.12;98494.34;4983039;28;20513;-74
2021/04/26 09:26:36;;;;;;;3.78;2.20;;;;;;;14.56;34.16;98491.72;4984155;28;21350;-75
2021/04/26 09:29:18;;;;;;;4.45;1.88;;;;;;;14.81;35.24;98488.59;4985516;28;20042;-73
2021/04/26 09:32:16;;;;;;;2.97;1.90;;;;;;;14.98;34.58;98488.44;4987301;28;20113;-71
2021/04/26 09:34:42;;;;;;;4.78;2.20;;;;;;;14.57;34.97;98495.19;4981464;28;20042;-71
2021/04/26 09:37:19;;;;;;;2.85;1.90;;;;;;;14.60;33.59;98485.34;4981833;28;20458;-71
2021/04/26 09:40:04;;;;;;;2.97;1.92;;;;;;;14.73;33.80;98482.88;4998469;28;20567;-72
2021/04/26 09:42:53;;;;;;;2.80;1.90;;;;;;;15.11;34.08;98484.19;4981202;28;20038;-71
2021/04/26 09:45:22;;;;;;;3.03;1.98;;;;;;;15.06;33.12;98480.97;4985234;28;20077;-71
2021/04/26 09:48:11;;;;;;;3.40;1.70;;;;;;;15.34;32.69;98476.72;4984295;28;20038;-70
2021/04/26 09:50:57;;;;;;;2.92;1.90;;;;;;;16.05;32.06;98466.28;4980132;28;20049;-70
2021/04/26 09:53:25;;;;;;;4.30;2.00;;;;;;;16.11;32.25;98468.53;4984979;28;20026;-71
2021/04/26 09:55:52;;;;;;;3.35;1.98;;;;;;;16.65;32.87;98466.03;4983903;28;20041;-72
2021/04/26 09:58:19;;;;;;;2.40;1.80;;;;;;;16.21;32.09;98472.28;4991768;28;20069;-71
2021/04/26 10:00:46;;;;;;;3.22;1.83;;;;;;;16.60;31.39;98462.81;4984772;28;20038;-71
2021/04/26 10:03:15;;;;;;;;;;;;;;;16.39;30.91;98460.59;4979769;28;20096;-71
2021/04/26 10:05:45;;;;;;;2.60;1.83;;;;;;;16.23;30.75;98456.38;4983937;28;19944;-71
2021/04/26 10:08:15;;;;;;;4.43;2.00;;;;;;;16.12;31.98;98460.53;4987177;28;20069;-71
2021/04/26 10:10:46;;;;;;;2.75;1.80;;;;;;;15.05;32.55;98458.19;4989747;28;20033;-71
2021/04/26 10:13:12;;;;;;;3.25;1.90;;;;;;;16.78;31.32;98451.09;4990621;28;20045;-71
2021/04/26 10:15:38;;;;;;;3.17;1.85;;;;;;;16.50;31.01;98446.69;4985734;28;20038;-72
2021/04/26 10:18:09;;;;;;;3.38;1.77;;;;;;;16.72;30.21;98452.31;4982157;28;20433;-71
2021/04/26 10:20:40;;;;;;;3.05;1.70;;;;;;;16.68;29.65;98449.97;4986300;28;20030;-71
2021/04/26 10:23:35;;;;;;;2.72;1.85;;;;;;;16.56;29.77;98445.47;4985433;28;20533;-71
2021/04/26 10:26:01;;;;;;;4.13;1.70;;;;;;;16.63;30.66;98452.09;4985322;28;20057;-71
2021/04/26 10:28:37;;;;;;;4.35;1.80;;;;;;;17.18;29.52;98446.66;4989139;28;20027;-71
2021/04/26 10:31:13;;;;;;;2.53;1.58;;;;;;;17.33;29.58;98447.41;4988211;28;20022;-71
2021/04/26 10:33:58;;;;;;;1.88;1.58;;;;;;;17.59;28.36;98443.84;4980168;28;20061;-71
2021/04/26 10:36:53;;;;;;;2.20;1.55;;;;;;;17.82;28.08;98432.56;4969356;28;20133;-71
2021/04/26 10:39:20;;;;;;;1.88;1.35;;;;;;;17.70;26.54;98440.50;4965807;28;20090;-71
2021/04/26 10:41:48;;;;;;;3.22;1.77;;;;;;;17.47;26.75;98431.47;4970563;28;20022;-70
2021/04/26 10:44:14;;;;;;;3.10;1.80;;;;;;;17.84;27.97;98428.03;4970100;28;20097;-71
2021/04/26 10:46:40;;;;;;;3.00;1.90;;;;;;;17.48;27.92;98426.06;4969395;28;20122;-71
2021/04/26 10:49:06;;;;;;;3.58;1.52;;;;;;;17.78;26.79;98423.16;4970225;28;20113;-70
2021/04/26 10:51:36;;;;;;;2.72;1.60;;;;;;;16.83;27.26;98423.41;4988649;28;20117;-71
2021/04/26 10:54:05;;;;;;;3.13;1.90;;;;;;;16.80;26.90;98418.31;4990592;28;20026;-71
2021/04/26 10:56:33;;;;;;;3.30;1.90;;;;;;;17.37;26.06;98414.56;4990786;28;20109;-71
2021/04/26 10:59:17;;;;;;;3.17;1.70;;;;;;;18.05;28.15;98403.63;4992859;28;20026;-73
2021/04/26 11:01:49;;;;;;;4.53;1.80;;;;;;;18.06;26.46;98406.16;4983844;28;20405;-71
2021/04/26 11:04:15;;;;;;;2.97;1.88;;;;;;;17.69;27.01;98397.34;4972706;28;20063;-71
2021/04/26 11:06:59;;;;;;;4.40;2.03;;;;;;;18.34;27.72;98394.44;4973920;28;20396;-72
2021/04/26 11:09:37;;;;;;;3.40;1.73;;;;;;;18.43;25.74;98392.94;4973651;28;20441;-72
2021/04/26 11:12:23;;;;;;;2.63;1.70;;;;;;;18.25;26.15;98381.88;4976722;28;20508;-71
2021/04/26 11:14:50;;;;;;;3.42;1.98;;;;;;;18.30;27.31;98377.09;4993056;28;20034;-72
2021/04/26 11:17:25;;;;;;;2.58;1.60;;;;;;;18.96;26.85;98381.03;4993771;28;20022;-71
2021/04/26 11:20:18;;;;;;;2.45;1.70;;;;;;;19.08;25.96;98369.53;4987520;28;20042;-70
2021/04/26 11:22:44;;;;;;;1.98;1.67;;;;;;;19.15;25.56;98365.44;4983108;28;20136;-72
2021/04/26 11:25:29;;;;;;;2.80;1.70;;;;;;;19.47;24.74;98352.34;4987130;28;20054;-70
2021/04/26 11:27:56;;;;;;;3.45;1.67;;;;;;;20.82;24.94;98347.69;4989733;28;20045;-73
2021/04/26 11:30:23;;;;;;;2.63;1.50;;;;;;;20.60;23.50;98338.88;4982156;28;20030;-72
2021/04/26 11:32:56;;;;;;;;;;;;;;;20.50;24.13;98342.38;4986732;28;20030;-71
2021/04/26 11:35:21;;;;;;;2.38;1.60;;;;;;;21.67;23.80;98337.78;4983870;28;19925;-70
2021/04/26 11:37:47;;;;;;;2.67;1.60;;;;;;;18.28;23.28;98345.44;4985073;28;20038;-70
2021/04/26 11:40:25;;;;;;;2.38;1.50;;;;;;;19.99;24.22;98327.06;4988589;28;20090;-72
2021/04/26 11:42:51;;;;;;;3.72;1.75;;;;;;;21.49;22.22;98323.41;4975530;28;20030;-71
2021/04/26 11:45:21;;;;;;;2.70;1.52;;;;;;;21.33;21.71;98321.22;4989727;28;20145;-71
2021/04/26 11:47:48;;;;;;;3.30;1.80;;;;;;;20.46;23.10;98311.75;4988805;28;20065;-71